Time;durP1;ratioP1;P1;durP2;ratioP2;P2;SDS_P1;SDS_P2;PMS_P1;PMS_P2;Temp;Humidity;BMP_temperature;BMP_pressure;BME280_temperature;BME280_humidity;BME280_pressure;Samples;Min_cycle;Max_cycle;Signal;HPM_P1;HPM_P2
2022/10/09 00:02:13;;;;;;;1.67;1.40;;;;;;;5.12;100.00;101651.75;4968165;28;20201;-74
2022/10/09 00:04:39;;;;;;;1.33;1.23;;;;;;;5.16;100.00;101655.25;4966189;28;20216;-73
2022/10/09 00:07:05;;;;;;;2.50;1.10;;;;;;;5.21;100.00;101652.72;4966021;28;20218;-73
2022/10/09 00:09:32;;;;;;;2.03;1.50;;;;;;;5.20;100.00;101657.00;4969217;28;20206;-74
2022/10/09 00:11:59;;;;;;;4.50;1.17;;;;;;;5.17;100.00;101662.16;4968020;28;20232;-73
2022/10/09 00:14:26;;;;;;;2.17;1.10;;;;;;;5.13;100.00;101663.81;4965215;28;20591;-73
2022/10/09 00:16:53;;;;;;;2.93;1.13;;;;;;;5.14;100.00;101659.53;4966815;28;20236;-74
2022/10/09 00:19:20;;;;;;;1.47;1.37;;;;;;;5.08;100.00;101659.44;4966972;28;20202;-74
2022/10/09 00:21:46;;;;;;;1.50;1.33;;;;;;;5.00;100.00;101667.09;4964458;28;20619;-75
2022/10/09 00:24:12;;;;;;;1.70;1.60;;;;;;;5.02;100.00;101669.72;4965474;28;20213;-73
2022/10/09 00:26:39;;;;;;;5.47;1.20;;;;;;;4.96;100.00;101664.44;4965429;28;20234;-73
2022/10/09 00:29:06;;;;;;;1.53;1.23;;;;;;;4.91;100.00;101669.56;4965960;28;20210;-72
2022/10/09 00:31:33;;;;;;;1.20;1.10;;;;;;;4.85;100.00;101670.34;4962055;28;20229;-73
2022/10/09 00:34:00;;;;;;;3.00;1.30;;;;;;;4.73;100.00;101665.88;4964894;28;20212;-73
2022/10/09 00:36:27;;;;;;;2.93;0.90;;;;;;;4.72;100.00;101665.84;4958585;28;20235;-74
2022/10/09 00:38:54;;;;;;;1.23;1.13;;;;;;;4.67;100.00;101672.66;4963878;28;20198;-72
2022/10/09 00:41:22;;;;;;;4.60;1.03;;;;;;;4.60;100.00;101682.03;4969151;28;20624;-74
2022/10/09 00:43:51;;;;;;;1.53;1.37;;;;;;;4.60;100.00;101683.75;4970284;28;20618;-74
2022/10/09 00:46:26;;;;;;;2.53;1.37;;;;;;;4.68;100.00;101684.75;4967698;28;20416;-74
2022/10/09 00:48:59;;;;;;;1.70;1.20;;;;;;;4.65;100.00;101685.56;4970034;28;20499;-74
2022/10/09 00:51:26;;;;;;;1.97;1.30;;;;;;;4.73;100.00;101685.66;4964760;28;20217;-74
2022/10/09 00:53:53;;;;;;;1.63;1.40;;;;;;;4.70;100.00;101693.38;4968256;28;20555;-74
2022/10/09 00:56:19;;;;;;;2.33;1.50;;;;;;;4.73;100.00;101688.25;4964223;28;20233;-74
2022/10/09 00:58:51;;;;;;;2.47;1.20;;;;;;;4.74;100.00;101687.41;4965723;28;20213;-74
2022/10/09 01:01:18;;;;;;;1.13;1.03;;;;;;;4.76;100.00;101690.03;4964633;28;20205;-74
2022/10/09 01:03:45;;;;;;;1.63;1.13;;;;;;;4.63;100.00;101694.16;4967557;28;20689;-72
2022/10/09 01:06:17;;;;;;;2.80;1.63;;;;;;;4.54;100.00;101693.16;4964341;28;20706;-74
2022/10/09 01:08:51;;;;;;;2.80;1.10;;;;;;;4.54;100.00;101690.56;4968248;28;20206;-74
2022/10/09 01:11:28;;;;;;;3.97;1.53;;;;;;;4.47;100.00;101693.91;4963402;28;20218;-73
2022/10/09 01:14:04;;;;;;;5.70;1.40;;;;;;;4.47;100.00;101690.44;4968226;28;20450;-74
2022/10/09 01:16:34;;;;;;;1.97;1.17;;;;;;;4.33;100.00;101696.25;4964391;28;20226;-74
2022/10/09 01:19:12;;;;;;;1.57;1.47;;;;;;;4.26;100.00;101698.72;4968508;28;20209;-74
2022/10/09 01:21:43;;;;;;;1.90;1.27;;;;;;;4.26;100.00;101704.72;4966905;28;20772;-74
2022/10/09 01:24:22;;;;;;;1.30;1.20;;;;;;;4.28;100.00;101703.03;4961020;28;20214;-73
2022/10/09 01:27:09;;;;;;;1.80;1.30;;;;;;;4.32;100.00;101696.22;4946428;28;20248;-74
2022/10/09 01:29:39;;;;;;;1.70;1.57;;;;;;;4.28;100.00;101697.88;4965796;28;20229;-74
2022/10/09 01:38:18;;;;;;;1.43;1.20;;;;;;;4.29;100.00;101701.31;4966329;28;20626;-74
2022/10/09 01:40:44;;;;;;;1.80;1.60;;;;;;;4.32;100.00;101706.53;4965073;28;20213;-73
2022/10/09 01:43:12;;;;;;;1.87;1.57;;;;;;;4.33;100.00;101705.72;4965772;28;20210;-75
2022/10/09 01:45:41;;;;;;;2.40;1.70;;;;;;;4.31;100.00;101704.78;4964013;28;20288;-73
2022/10/09 01:48:11;;;;;;;1.60;1.43;;;;;;;4.30;100.00;101711.69;4964597;28;20200;-74
2022/10/09 01:50:43;;;;;;;1.40;1.30;;;;;;;4.26;100.00;101711.63;4967396;28;20206;-74
2022/10/09 01:53:11;;;;;;;1.70;1.13;;;;;;;4.25;100.00;101720.19;4967343;28;20225;-73
2022/10/09 01:55:44;;;;;;;2.33;1.40;;;;;;;4.24;100.00;101719.34;4969232;28;20837;-73
2022/10/09 01:58:18;;;;;;;1.60;1.30;;;;;;;4.13;100.00;101718.25;4967720;28;20211;-74
2022/10/09 02:00:47;;;;;;;1.93;1.47;;;;;;;4.15;100.00;101719.16;4969491;28;20206;-73
2022/10/09 02:03:15;;;;;;;1.20;1.10;;;;;;;4.15;100.00;101727.78;4973813;28;20234;-74
2022/10/09 02:05:44;;;;;;;1.90;1.47;;;;;;;4.08;100.00;101725.03;4965201;28;20217;-73
2022/10/09 02:08:14;;;;;;;2.10;1.60;;;;;;;4.07;100.00;101729.34;4967097;28;20197;-74
2022/10/09 02:10:42;;;;;;;2.27;1.47;;;;;;;4.10;100.00;101732.00;4966103;28;20198;-73
2022/10/09 02:13:08;;;;;;;1.53;1.43;;;;;;;4.10;100.00;101737.16;4953161;28;20320;-72
2022/10/09 02:15:42;;;;;;;1.40;1.17;;;;;;;4.13;100.00;101744.97;4966688;28;20348;-73
2022/10/09 02:18:12;;;;;;;2.17;1.67;;;;;;;4.11;100.00;101741.47;4970805;28;20239;-74
2022/10/09 02:20:44;;;;;;;3.83;1.43;;;;;;;4.09;100.00;101747.44;4967841;28;20214;-74
2022/10/09 02:23:13;;;;;;;2.10;1.67;;;;;;;4.13;100.00;101742.38;4966969;28;20194;-73
2022/10/09 02:25:39;;;;;;;4.13;1.90;;;;;;;4.13;100.00;101744.06;4984120;23;20244;-72
2022/10/09 02:28:07;;;;;;;2.50;1.53;;;;;;;4.12;100.00;101750.94;5007522;28;20217;-72
2022/10/09 02:30:48;;;;;;;2.80;1.70;;;;;;;4.11;100.00;101759.53;5011004;28;20198;-72
2022/10/09 02:33:14;;;;;;;3.70;1.90;;;;;;;4.12;100.00;101763.00;5009429;28;20206;-73
2022/10/09 02:35:41;;;;;;;4.40;1.90;;;;;;;4.16;100.00;101767.38;5011041;28;20225;-72
2022/10/09 02:38:07;;;;;;;1.87;1.47;;;;;;;4.10;100.00;101768.13;5008139;28;20209;-72
2022/10/09 02:40:34;;;;;;;3.97;1.70;;;;;;;4.16;100.00;101772.53;5014089;28;20239;-72
2022/10/09 02:43:01;;;;;;;2.63;1.50;;;;;;;4.07;100.00;101774.94;5010434;28;20225;-72
2022/10/09 02:45:27;;;;;;;4.87;2.37;;;;;;;4.07;100.00;101775.81;5013867;28;20569;-72
2022/10/09 02:47:55;;;;;;;2.03;1.50;;;;;;;4.02;100.00;101774.84;5013434;28;20375;-73
2022/10/09 02:50:22;;;;;;;2.20;1.63;;;;;;;4.13;100.00;101775.94;5007620;28;20512;-72
2022/10/09 02:52:48;;;;;;;4.73;1.53;;;;;;;4.26;100.00;101777.03;5014454;28;20223;-71
2022/10/09 02:55:15;;;;;;;2.13;1.63;;;;;;;4.09;100.00;101783.59;5014654;28;20695;-73
2022/10/09 02:57:41;;;;;;;4.10;1.40;;;;;;;4.09;100.00;101781.84;5010122;28;20243;-73
2022/10/09 03:00:10;;;;;;;2.63;1.90;;;;;;;4.08;100.00;101784.41;5009826;28;20208;-73
2022/10/09 03:02:37;;;;;;;2.77;1.37;;;;;;;3.94;100.00;101785.03;5017428;28;20712;-71
2022/10/09 03:05:05;;;;;;;2.47;1.83;;;;;;;3.94;100.00;101782.44;5011430;28;20201;-73
2022/10/09 03:07:32;;;;;;;4.10;1.43;;;;;;;3.95;100.00;101791.06;5011715;28;20197;-72
2022/10/09 03:09:58;;;;;;;2.03;1.53;;;;;;;3.88;100.00;101784.91;5016708;28;20205;-72
2022/10/09 03:12:24;;;;;;;2.20;1.60;;;;;;;3.81;100.00;101790.78;5011800;28;20787;-73
2022/10/09 03:14:51;;;;;;;1.80;1.50;;;;;;;3.73;100.00;101790.63;5009594;28;20562;-72
2022/10/09 03:17:17;;;;;;;2.03;1.47;;;;;;;3.66;100.00;101791.34;5009804;28;20682;-72
2022/10/09 03:19:43;;;;;;;3.30;1.60;;;;;;;3.72;100.00;101796.63;5013283;28;20197;-73
2022/10/09 03:22:11;;;;;;;4.20;1.80;;;;;;;3.69;100.00;101796.53;5008875;28;20221;-72
2022/10/09 03:24:37;;;;;;;4.07;1.70;;;;;;;3.63;100.00;101800.72;5004696;28;20571;-72
2022/10/09 03:27:04;;;;;;;2.57;1.60;;;;;;;3.69;100.00;101795.69;5027733;28;20207;-73
2022/10/09 03:29:30;;;;;;;3.33;1.70;;;;;;;3.57;100.00;101799.75;5025417;28;20230;-72
2022/10/09 03:31:56;;;;;;;3.70;1.90;;;;;;;3.64;100.00;101795.59;5037107;28;20211;-71
2022/10/09 03:34:23;;;;;;;2.73;1.60;;;;;;;3.63;100.00;101796.44;5034865;28;20204;-73
2022/10/09 03:36:49;;;;;;;1.90;1.50;;;;;;;3.64;100.00;101792.13;5029101;28;20204;-72
2022/10/09 03:39:17;;;;;;;3.53;1.70;;;;;;;3.52;100.00;101797.91;5039422;28;20288;-73
2022/10/09 03:41:44;;;;;;;1.77;1.43;;;;;;;3.50;100.00;101803.03;5033797;28;20220;-72
2022/10/09 03:44:10;;;;;;;1.70;1.60;;;;;;;3.40;100.00;101795.94;5031365;28;20541;-72
2022/10/09 03:46:37;;;;;;;2.87;1.50;;;;;;;3.40;100.00;101801.09;5031421;28;20250;-71
2022/10/09 03:49:04;;;;;;;3.00;1.50;;;;;;;3.42;100.00;101799.41;5031733;28;20206;-73
2022/10/09 03:51:30;;;;;;;2.90;1.90;;;;;;;3.38;100.00;101803.63;5029329;28;20208;-72
2022/10/09 03:53:57;;;;;;;2.77;1.63;;;;;;;3.43;100.00;101801.16;5032724;28;20206;-72
2022/10/09 03:56:25;;;;;;;2.13;1.50;;;;;;;3.36;100.00;101800.16;5034859;28;20704;-73
2022/10/09 03:58:51;;;;;;;2.33;1.70;;;;;;;3.37;100.00;101808.75;5033283;28;20227;-73
2022/10/09 04:01:17;;;;;;;2.90;1.73;;;;;;;3.40;100.00;101811.41;5026894;28;20208;-72
2022/10/09 04:03:44;;;;;;;3.60;1.80;;;;;;;3.36;100.00;101810.47;5027824;28;20203;-73
2022/10/09 04:06:11;;;;;;;3.23;2.00;;;;;;;3.34;100.00;101813.84;5026284;28;20211;-73
2022/10/09 04:08:37;;;;;;;1.37;1.27;;;;;;;3.31;100.00;101824.09;5028188;28;20200;-72
2022/10/09 04:11:04;;;;;;;2.17;1.67;;;;;;;3.29;100.00;101824.06;5034565;28;20283;-73
2022/10/09 04:13:31;;;;;;;1.97;1.40;;;;;;;3.27;100.00;101825.69;5029883;28;20216;-73
2022/10/09 04:15:58;;;;;;;2.27;1.50;;;;;;;3.31;100.00;101822.38;5033143;28;20199;-73
2022/10/09 04:18:25;;;;;;;2.30;1.80;;;;;;;3.36;100.00;101830.19;5038362;28;20201;-72
2022/10/09 04:20:52;;;;;;;2.70;2.10;;;;;;;3.45;100.00;101834.69;5035084;28;20563;-71
2022/10/09 04:23:19;;;;;;;5.03;1.90;;;;;;;3.54;100.00;101834.94;5034423;28;20211;-72
2022/10/09 04:25:46;;;;;;;3.53;1.80;;;;;;;3.56;100.00;101828.94;5031577;28;20204;-72
2022/10/09 04:28:13;;;;;;;3.13;1.70;;;;;;;3.57;100.00;101835.88;5029896;28;20199;-71
2022/10/09 04:30:41;;;;;;;2.43;1.70;;;;;;;3.63;100.00;101836.84;5028206;28;20211;-72
2022/10/09 04:33:07;;;;;;;3.30;1.83;;;;;;;3.65;100.00;101843.75;5010763;28;20231;-72
2022/10/09 04:35:34;;;;;;;3.93;1.67;;;;;;;3.57;100.00;101837.53;5030739;28;20196;-71
2022/10/09 04:38:00;;;;;;;2.23;1.93;;;;;;;3.58;100.00;101840.16;5039245;28;20576;-71
2022/10/09 04:40:26;;;;;;;4.57;1.87;;;;;;;3.57;100.00;101841.03;5038878;28;20279;-71
2022/10/09 04:42:53;;;;;;;2.10;1.83;;;;;;;3.63;100.00;101837.69;5037520;28;20738;-71
2022/10/09 04:45:19;;;;;;;4.30;2.23;;;;;;;3.54;100.00;101845.25;5031290;28;20199;-72
2022/10/09 04:47:47;;;;;;;2.13;1.73;;;;;;;3.60;100.00;101843.66;5028035;28;20207;-72
2022/10/09 04:50:14;;;;;;;2.80;2.03;;;;;;;3.57;100.00;101843.59;5032692;28;20191;-71
2022/10/09 04:52:56;;;;;;;2.83;2.20;;;;;;;3.58;100.00;101839.31;5031766;28;20215;-71
2022/10/09 04:55:23;;;;;;;2.53;1.97;;;;;;;3.56;100.00;101846.13;5028524;28;20272;-71
2022/10/09 04:57:49;;;;;;;9.40;2.77;;;;;;;3.53;100.00;101844.34;5029750;28;20239;-71
2022/10/09 05:00:16;;;;;;;3.10;1.87;;;;;;;3.56;100.00;101852.16;5033816;28;20219;-72
2022/10/09 05:02:42;;;;;;;2.33;1.83;;;;;;;3.49;100.00;101850.28;5033140;28;20216;-71
2022/10/09 05:05:10;;;;;;;2.80;2.03;;;;;;;3.40;100.00;101848.38;5027815;28;20207;-72
2022/10/09 05:07:37;;;;;;;2.93;2.10;;;;;;;3.46;100.00;101854.50;5024935;28;20240;-72
2022/10/09 05:10:04;;;;;;;2.17;1.97;;;;;;;3.41;100.00;101854.38;5027796;28;20201;-71
2022/10/09 05:12:31;;;;;;;2.47;2.03;;;;;;;3.40;100.00;101860.41;5032334;28;20227;-72
2022/10/09 05:14:57;;;;;;;2.70;2.13;;;;;;;3.34;100.00;101863.72;5025933;28;20853;-71
2022/10/09 05:17:24;;;;;;;2.83;2.20;;;;;;;3.25;100.00;101860.88;5027708;28;20569;-72
2022/10/09 05:19:50;;;;;;;3.40;2.20;;;;;;;3.19;100.00;101871.06;5030057;28;20200;-71
2022/10/09 05:22:18;;;;;;;3.37;1.90;;;;;;;3.27;100.00;101868.66;5027414;28;20576;-71
2022/10/09 05:24:44;;;;;;;3.73;1.87;;;;;;;3.29;100.00;101873.03;5029730;28;20687;-72
2022/10/09 05:27:10;;;;;;;3.30;2.10;;;;;;;3.27;100.00;101877.25;5033404;28;20699;-72
2022/10/09 05:29:37;;;;;;;4.67;2.07;;;;;;;3.22;100.00;101876.31;5035002;28;20465;-71
2022/10/09 05:32:03;;;;;;;5.43;1.87;;;;;;;3.23;100.00;101880.59;5029919;28;20223;-71
2022/10/09 05:34:30;;;;;;;2.80;1.90;;;;;;;3.19;100.00;101873.66;5029687;28;20195;-71
2022/10/09 05:36:56;;;;;;;1.97;1.70;;;;;;;3.14;100.00;101877.81;5031028;28;20199;-73
2022/10/09 05:39:24;;;;;;;4.57;2.00;;;;;;;3.13;100.00;101874.38;5035831;28;20199;-74
2022/10/09 05:41:51;;;;;;;3.10;1.93;;;;;;;3.19;100.00;101877.09;5033500;28;20234;-73
2022/10/09 05:44:17;;;;;;;3.50;2.60;;;;;;;3.13;100.00;101883.78;5030318;28;20490;-71
2022/10/09 05:46:43;;;;;;;4.77;2.17;;;;;;;3.19;100.00;101889.13;5027718;28;20798;-71
2022/10/09 05:49:11;;;;;;;4.70;2.10;;;;;;;3.16;100.00;101883.88;5030740;28;20653;-71
2022/10/09 05:51:39;;;;;;;2.97;2.37;;;;;;;3.17;100.00;101890.78;5026844;28;20219;-71
2022/10/09 05:54:06;;;;;;;2.77;2.00;;;;;;;3.16;100.00;101891.59;5035578;28;20207;-71
2022/10/09 05:56:35;;;;;;;2.90;2.00;;;;;;;3.18;100.00;101900.25;5026617;28;20684;-71
2022/10/09 05:59:04;;;;;;;4.80;1.97;;;;;;;3.18;100.00;101895.09;5033199;28;20204;-74
2022/10/09 06:01:33;;;;;;;2.60;2.20;;;;;;;3.18;100.00;101901.13;5025234;28;20314;-73
2022/10/09 06:04:01;;;;;;;4.27;2.60;;;;;;;3.25;100.00;101901.28;5028935;28;20200;-74
2022/10/09 06:06:29;;;;;;;2.77;2.13;;;;;;;3.38;100.00;101899.03;5025580;28;20661;-74
2022/10/09 06:08:56;;;;;;;5.97;2.47;;;;;;;3.56;100.00;101905.47;5021086;28;20289;-73
2022/10/09 06:11:24;;;;;;;5.60;3.07;;;;;;;3.64;100.00;101910.78;5027300;28;20224;-73
2022/10/09 06:13:52;;;;;;;5.33;3.30;;;;;;;3.68;100.00;101910.91;5032136;28;20209;-73
2022/10/09 06:16:18;;;;;;;6.73;3.80;;;;;;;3.72;100.00;101909.25;5032402;28;20219;-73
2022/10/09 06:18:46;;;;;;;8.77;3.80;;;;;;;3.77;100.00;101921.41;5031064;28;20742;-72
2022/10/09 06:21:14;;;;;;;4.47;2.93;;;;;;;3.75;100.00;101922.22;5032426;28;20195;-73
2022/10/09 06:23:41;;;;;;;6.40;2.87;;;;;;;3.77;100.00;101925.72;5029038;28;20201;-73
2022/10/09 06:26:10;;;;;;;4.80;2.73;;;;;;;3.81;100.00;101924.06;5021228;28;20214;-73
2022/10/09 06:28:36;;;;;;;4.93;2.77;;;;;;;3.88;100.00;101925.94;5025214;28;20250;-73
2022/10/09 06:31:06;;;;;;;4.50;3.13;;;;;;;3.99;100.00;101927.03;5032453;28;20635;-73
2022/10/09 06:33:34;;;;;;;4.93;3.00;;;;;;;4.07;100.00;101930.66;5006925;28;20565;-73
2022/10/09 06:36:01;;;;;;;5.13;3.20;;;;;;;4.14;100.00;101937.72;5033983;28;20201;-73
2022/10/09 06:38:28;;;;;;;7.23;3.40;;;;;;;4.20;100.00;101936.09;5030941;28;20199;-73
2022/10/09 06:40:54;;;;;;;7.67;4.07;;;;;;;4.22;100.00;101943.06;5034307;28;20258;-73
2022/10/09 06:43:21;;;;;;;7.40;4.47;;;;;;;4.35;100.00;101947.63;5032957;28;20230;-73
2022/10/09 06:45:47;;;;;;;8.63;4.80;;;;;;;4.42;100.00;101946.03;5029538;28;20211;-73
2022/10/09 06:48:15;;;;;;;11.17;5.10;;;;;;;4.51;100.00;101956.53;5029790;28;20197;-72
2022/10/09 06:50:41;;;;;;;6.73;4.70;;;;;;;4.56;100.00;101951.47;5033672;28;20196;-72
2022/10/09 06:53:08;;;;;;;8.07;5.50;;;;;;;4.66;100.00;101962.84;5023628;28;20563;-73
2022/10/09 06:55:34;;;;;;;12.90;5.60;;;;;;;4.71;100.00;101967.28;5027956;28;20210;-73
2022/10/09 06:58:01;;;;;;;5.27;4.10;;;;;;;4.77;100.00;101963.06;5026990;28;20206;-73
2022/10/09 07:00:28;;;;;;;8.60;4.43;;;;;;;4.88;100.00;101962.41;5022358;28;20207;-74
2022/10/09 07:02:55;;;;;;;6.13;4.73;;;;;;;4.93;100.00;101965.97;5022463;28;20228;-73
2022/10/09 07:05:22;;;;;;;5.00;4.33;;;;;;;5.04;100.00;101970.47;5021996;28;20686;-71
2022/10/09 07:07:49;;;;;;;8.10;5.13;;;;;;;5.11;100.00;101980.94;5020746;28;20204;-72
2022/10/09 07:10:15;;;;;;;6.20;3.90;;;;;;;5.22;100.00;101978.53;5024104;28;20200;-73
2022/10/09 07:12:41;;;;;;;8.07;4.27;;;;;;;5.27;100.00;101974.31;5027030;28;20219;-68
2022/10/09 07:15:09;;;;;;;11.07;4.30;;;;;;;5.38;100.00;101984.88;5021655;28;20211;-73
2022/10/09 07:17:35;;;;;;;6.90;3.87;;;;;;;5.47;100.00;101984.13;5022931;28;20719;-73
2022/10/09 07:20:01;;;;;;;13.93;4.93;;;;;;;5.56;100.00;101989.47;5022457;28;20212;-73
2022/10/09 07:22:29;;;;;;;7.37;4.27;;;;;;;5.66;100.00;101991.38;5023745;28;20623;-73
2022/10/09 07:24:56;;;;;;;9.77;3.80;;;;;;;5.78;100.00;101995.84;5024802;28;20207;-70
2022/10/09 07:27:22;;;;;;;8.00;3.37;;;;;;;5.88;100.00;101996.88;5016598;28;20651;-71
2022/10/09 07:29:49;;;;;;;9.40;4.03;;;;;;;5.99;100.00;101997.06;5018807;28;20208;-72
2022/10/09 07:32:15;;;;;;;4.67;3.40;;;;;;;6.09;100.00;102004.13;5019058;28;20220;-71
2022/10/09 07:34:42;;;;;;;7.50;3.63;;;;;;;6.17;100.00;102002.50;5020259;28;20212;-69
2022/10/09 07:37:08;;;;;;;6.73;3.87;;;;;;;6.25;100.00;102000.03;5023471;28;20196;-71
2022/10/09 07:39:36;;;;;;;7.93;3.87;;;;;;;6.38;100.00;102001.06;5025543;28;20203;-71
2022/10/09 07:42:05;;;;;;;7.07;3.57;;;;;;;6.46;100.00;102001.16;5021378;28;20235;-71
2022/10/09 07:44:31;;;;;;;5.43;3.40;;;;;;;6.53;100.00;101996.06;5018818;28;20200;-71
2022/10/09 07:46:57;;;;;;;8.40;4.10;;;;;;;6.60;100.00;101997.88;5028206;28;20275;-72
2022/10/09 07:49:24;;;;;;;8.73;3.67;;;;;;;6.74;100.00;102000.66;5021937;28;20201;-72
2022/10/09 07:51:50;;;;;;;6.80;3.47;;;;;;;6.84;100.00;101999.00;5020948;28;20224;-72
2022/10/09 07:54:16;;;;;;;10.07;4.10;;;;;;;6.89;100.00;102004.25;5022416;28;20231;-71
2022/10/09 07:56:44;;;;;;;6.60;3.53;;;;;;;6.99;100.00;101995.72;5023874;28;20200;-70
2022/10/09 07:59:13;;;;;;;7.57;4.50;;;;;;;7.08;100.00;101992.38;5021277;28;20408;-72
2022/10/09 08:01:40;;;;;;;10.07;4.27;;;;;;;7.15;100.00;102009.72;5019895;28;20239;-72
2022/10/09 08:04:07;;;;;;;8.23;4.17;;;;;;;7.27;100.00;102007.25;5020724;28;20194;-72
2022/10/09 08:06:34;;;;;;;9.73;3.77;;;;;;;7.35;100.00;102007.31;5022019;28;20207;-70
2022/10/09 08:09:01;;;;;;;5.30;3.43;;;;;;;7.43;100.00;101997.03;5020656;28;20225;-71
2022/10/09 08:11:29;;;;;;;9.23;3.80;;;;;;;7.51;100.00;101992.75;5028349;23;20222;-70
2022/10/09 08:13:57;;;;;;;9.13;3.67;;;;;;;7.59;100.00;101994.56;4999407;28;20237;-71
2022/10/09 08:16:25;;;;;;;7.40;3.87;;;;;;;7.67;100.00;101996.34;5001072;28;20204;-72
2022/10/09 08:18:54;;;;;;;8.53;3.33;;;;;;;7.72;100.00;102005.91;5000728;28;20228;-69
2022/10/09 08:21:21;;;;;;;4.87;3.40;;;;;;;7.82;100.00;101995.59;4998928;28;20516;-70
2022/10/09 08:23:52;;;;;;;5.73;3.47;;;;;;;7.93;100.00;102002.63;5006234;28;20252;-71
2022/10/09 08:26:20;;;;;;;5.93;3.40;;;;;;;7.97;100.00;102000.91;4994581;28;20216;-72
2022/10/09 08:28:50;;;;;;;9.20;3.43;;;;;;;8.08;100.00;102006.16;4998522;28;20218;-71
2022/10/09 08:31:18;;;;;;;4.87;3.37;;;;;;;8.15;100.00;102007.94;5002445;28;20190;-72
2022/10/09 08:33:44;;;;;;;6.17;3.80;;;;;;;8.25;100.00;102004.53;5005564;28;20219;-70
2022/10/09 08:36:14;;;;;;;4.53;3.20;;;;;;;8.34;100.00;101999.38;4990743;28;20515;-71
2022/10/09 08:38:40;;;;;;;7.67;3.50;;;;;;;8.47;100.00;102002.06;4994686;28;20861;-72
2022/10/09 08:41:11;;;;;;;12.13;4.03;;;;;;;8.56;100.00;102007.31;4998452;28;20204;-72
2022/10/09 08:43:44;;;;;;;6.30;3.30;;;;;;;8.63;100.00;102001.25;5011735;28;20575;-72
2022/10/09 08:46:17;;;;;;;5.60;3.10;;;;;;;8.72;100.00;102003.03;5006412;28;20196;-72
2022/10/09 08:48:46;;;;;;;8.50;3.77;;;;;;;8.80;100.00;102003.06;5008641;28;20203;-72
2022/10/09 08:51:20;;;;;;;7.90;3.60;;;;;;;8.90;100.00;102004.84;5010622;28;20218;-71
2022/10/09 08:53:53;;;;;;;9.83;3.10;;;;;;;8.97;100.00;101996.19;5013729;28;20619;-71
2022/10/09 08:56:19;;;;;;;10.37;3.10;;;;;;;9.08;100.00;101989.25;5009411;28;20207;-72
2022/10/09 08:58:46;;;;;;;14.50;3.10;;;;;;;9.09;100.00;101993.59;5010113;28;20212;-72
2022/10/09 09:01:20;;;;;;;10.10;3.70;;;;;;;9.28;100.00;101997.09;5015970;28;20979;-71
2022/10/09 09:04:12;;;;;;;7.37;3.20;;;;;;;9.39;100.00;101996.22;5009623;28;20219;-72
2022/10/09 09:06:44;;;;;;;11.67;3.23;;;;;;;9.53;100.00;101997.09;5002063;28;20213;-72
2022/10/09 09:09:19;;;;;;;8.47;3.10;;;;;;;9.59;100.00;101991.91;5009841;28;20207;-71
2022/10/09 09:11:50;;;;;;;11.30;3.80;;;;;;;9.59;100.00;101993.66;5011406;28;20848;-71
2022/10/09 09:14:39;;;;;;;11.50;2.87;;;;;;;9.71;100.00;101992.75;5005893;28;20267;-71
2022/10/09 09:17:12;;;;;;;7.37;3.30;;;;;;;9.74;100.00;101992.75;5005732;28;20208;-70
2022/10/09 09:19:54;;;;;;;8.30;3.20;;;;;;;9.80;100.00;101996.22;5003244;28;20691;-72
2022/10/09 09:22:23;;;;;;;4.73;2.87;;;;;;;9.92;100.00;101994.47;4999541;28;20217;-70
2022/10/09 09:24:52;;;;;;;12.33;3.70;;;;;;;9.95;100.00;101994.47;5003904;28;20203;-71
2022/10/09 09:27:21;;;;;;;6.60;3.60;;;;;;;10.00;100.00;101990.97;5007449;28;20232;-71
2022/10/09 09:29:54;;;;;;;15.03;3.87;;;;;;;10.12;100.00;101999.66;5005176;28;20268;-71
2022/10/09 09:32:23;;;;;;;14.27;3.63;;;;;;;10.24;100.00;101997.88;5001721;28;20225;-70
2022/10/09 09:34:55;;;;;;;15.63;5.47;;;;;;;10.35;100.00;101994.41;5002670;28;20225;-71
2022/10/09 09:37:23;;;;;;;9.43;3.93;;;;;;;10.38;100.00;101997.88;5001746;28;20202;-71
2022/10/09 09:39:49;;;;;;;10.10;3.73;;;;;;;10.49;100.00;101991.75;5007144;28;20577;-72
2022/10/09 09:42:19;;;;;;;6.67;3.30;;;;;;;10.59;100.00;101989.09;5004998;28;20226;-71
2022/10/09 09:44:50;;;;;;;10.57;3.17;;;;;;;10.76;100.00;101993.34;5001095;28;20281;-72
2022/10/09 09:47:23;;;;;;;6.80;3.00;;;;;;;10.78;100.00;101995.09;5005753;28;20309;-71
2022/10/09 09:49:57;;;;;;;7.83;2.73;;;;;;;10.88;100.00;101990.69;4999427;28;20198;-72
2022/10/09 09:52:26;;;;;;;8.90;2.67;;;;;;;10.91;100.00;101988.06;4994766;28;20228;-70
2022/10/09 09:54:57;;;;;;;10.37;2.60;;;;;;;10.93;100.00;101986.31;4997756;28;20717;-71
2022/10/09 09:57:31;;;;;;;9.37;2.47;;;;;;;10.98;100.00;101991.50;4998791;28;20234;-72
2022/10/09 10:00:09;;;;;;;3.40;2.13;;;;;;;11.10;100.00;101993.16;5001230;28;20203;-72
2022/10/09 10:02:36;;;;;;;3.80;1.70;;;;;;;11.07;100.00;101994.06;4995572;28;20236;-71
2022/10/09 10:05:17;;;;;;;5.00;1.57;;;;;;;11.16;100.00;101998.34;4996395;28;20551;-71
2022/10/09 10:07:43;;;;;;;2.77;1.40;;;;;;;11.25;100.00;101987.84;4995716;28;20211;-70
2022/10/09 10:10:15;;;;;;;2.77;1.23;;;;;;;11.30;100.00;101990.41;5002186;28;20208;-72
2022/10/09 10:12:43;;;;;;;4.33;1.30;;;;;;;11.29;100.00;101993.91;5005106;28;20231;-70
2022/10/09 10:15:18;;;;;;;2.87;1.10;;;;;;;11.42;100.00;101986.88;5004779;28;20212;-72
2022/10/09 10:17:45;;;;;;;3.07;0.97;;;;;;;11.50;100.00;101985.91;5006148;28;20209;-72
2022/10/09 10:20:15;;;;;;;2.27;1.00;;;;;;;11.57;100.00;101984.09;5006525;28;20203;-72
2022/10/09 10:22:50;;;;;;;3.20;1.30;;;;;;;11.70;100.00;101983.13;5007422;28;20331;-73
2022/10/09 10:25:19;;;;;;;3.83;1.00;;;;;;;11.81;100.00;101972.56;5001584;28;20207;-71
2022/10/09 10:27:49;;;;;;;2.70;1.37;;;;;;;11.85;100.00;101968.16;5008224;28;20218;-71
2022/10/09 10:30:17;;;;;;;3.60;1.07;;;;;;;11.85;100.00;101976.00;5010064;28;20208;-71
2022/10/09 10:32:50;;;;;;;4.17;2.23;;;;;;;11.78;100.00;101969.97;5003134;28;20694;-72
2022/10/09 10:35:21;;;;;;;1.80;0.80;;;;;;;11.85;100.00;101974.25;5002934;28;20231;-69
2022/10/09 10:37:55;;;;;;;1.47;0.90;;;;;;;11.99;100.00;101979.38;5001221;28;20215;-71
2022/10/09 10:40:24;;;;;;;1.90;1.03;;;;;;;12.12;100.00;101981.00;4997894;28;20215;-72
2022/10/09 10:43:03;;;;;;;3.03;1.00;;;;;;;12.26;100.00;101982.56;5000102;28;20275;-69
2022/10/09 10:45:35;;;;;;;1.87;0.80;;;;;;;12.47;100.00;101974.47;4997854;28;20218;-71
2022/10/09 10:48:03;;;;;;;1.87;0.77;;;;;;;12.56;100.00;101977.84;5001465;28;20219;-72
2022/10/09 10:50:42;;;;;;;1.63;0.83;;;;;;;12.65;100.00;101978.59;4999400;28;20212;-69
2022/10/09 10:53:19;;;;;;;2.20;1.03;;;;;;;12.84;100.00;101966.13;5000378;28;20681;-71
2022/10/09 10:55:52;;;;;;;4.37;1.33;;;;;;;12.97;100.00;101969.44;4999160;28;20227;-70
2022/10/09 10:58:26;;;;;;;2.63;1.20;;;;;;;13.12;100.00;101963.13;4996867;28;20237;-71
2022/10/09 11:01:15;;;;;;;1.53;0.83;;;;;;;13.27;100.00;101951.53;5001256;28;20209;-71
2022/10/09 11:03:57;;;;;;;6.47;1.10;;;;;;;13.39;100.00;101966.22;5001236;28;20236;-71
2022/10/09 11:06:31;;;;;;;4.80;1.00;;;;;;;13.50;100.00;101958.16;4997692;28;20295;-71
2022/10/09 11:09:09;;;;;;;0.80;0.73;;;;;;;13.51;100.00;101957.25;5001309;28;20311;-71
2022/10/09 11:11:42;;;;;;;1.60;0.80;;;;;;;13.57;100.00;101962.41;4995297;28;20260;-71
2022/10/09 11:14:25;;;;;;;1.33;0.70;;;;;;;13.78;100.00;101948.91;4997390;28;20204;-71
2022/10/09 11:17:01;;;;;;;1.43;1.00;;;;;;;13.88;100.00;101946.13;4993276;28;20300;-71
2022/10/09 11:19:48;;;;;;;0.50;0.47;;;;;;;13.97;100.00;101954.69;4998789;28;20203;-70
2022/10/09 11:22:36;;;;;;;1.70;0.80;;;;;;;14.08;100.00;101951.00;4998906;28;20228;-71
2022/10/09 11:25:29;;;;;;;1.43;0.83;;;;;;;14.05;100.00;101953.66;4988133;28;20220;-70
2022/10/09 11:28:02;;;;;;;1.70;0.70;;;;;;;14.08;100.00;101948.38;4986829;28;20232;-71
2022/10/09 11:30:36;;;;;;;1.10;0.70;;;;;;;14.17;100.00;101953.44;4993218;28;20299;-70
2022/10/09 11:33:11;;;;;;;3.63;1.40;;;;;;;14.12;100.00;101943.00;5000151;28;20232;-71
2022/10/09 11:35:44;;;;;;;1.10;0.50;;;;;;;14.05;100.00;101941.41;4992545;28;20239;-69
2022/10/09 11:38:25;;;;;;;1.50;0.50;;;;;;;14.08;100.00;101943.97;4980272;28;20687;-69
2022/10/09 11:40:52;;;;;;;1.47;0.60;;;;;;;14.10;100.00;101939.56;5004235;28;20211;-71